createdAt,value
2019-03-13T00:01:35.133Z,99126.09
2019-03-13T00:04:04.093Z,99130.22
2019-03-13T00:06:32.942Z,99140.92
2019-03-13T00:09:01.747Z,99131.59
2019-03-13T00:11:30.252Z,99140.64
2019-03-13T00:13:58.755Z,99162.89
2019-03-13T00:16:27.276Z,99190.36
2019-03-13T00:18:55.791Z,99217.28
2019-03-13T00:21:24.398Z,99235.96
2019-03-13T00:23:52.909Z,99250.49
2019-03-13T00:26:21.414Z,99256.28
2019-03-13T00:28:49.948Z,99270.02
2019-03-13T00:31:18.796Z,99277.71
2019-03-13T00:33:47.305Z,99288.16
2019-03-13T00:36:15.832Z,99302.13
2019-03-13T00:38:44.343Z,99307.37
2019-03-13T00:41:13.137Z,99321.36
2019-03-13T00:43:41.662Z,99314.50
2019-03-13T00:46:10.178Z,99328.53
2019-03-13T00:48:38.970Z,99325.23
2019-03-13T00:51:07.740Z,99334.84
2019-03-13T00:53:36.579Z,99331.52
2019-03-13T00:56:05.136Z,99343.09
2019-03-13T00:58:33.655Z,99343.88
2019-03-13T01:01:19.852Z,99343.88
2019-03-13T01:03:56.495Z,99349.12
2019-03-13T01:06:27.894Z,99359.56
2019-03-13T01:08:56.399Z,99362.31
2019-03-13T01:11:27.323Z,99360.12
2019-03-13T01:13:56.024Z,99361.20
2019-03-13T01:16:24.532Z,99369.73
2019-03-13T01:18:53.049Z,99375.22
2019-03-13T01:21:21.579Z,99375.77
2019-03-13T01:23:50.103Z,99380.72
2019-03-13T01:26:18.655Z,99388.12
2019-03-13T01:28:47.176Z,99393.34
2019-03-13T01:31:40.575Z,99396.38
2019-03-13T01:34:28.112Z,99399.95
2019-03-13T01:36:56.636Z,99401.58
2019-03-13T01:39:25.128Z,99405.45
2019-03-13T01:41:53.660Z,99417.52
2019-03-13T01:44:22.190Z,99415.89
2019-03-13T01:46:50.728Z,99415.31
2019-03-13T01:49:19.253Z,99420.02
2019-03-13T01:51:48.428Z,99426.88
2019-03-13T01:54:16.931Z,99424.68
2019-03-13T01:56:45.520Z,99426.30
2019-03-13T01:59:14.036Z,99426.88
2019-03-13T02:01:42.562Z,99433.17
2019-03-13T02:04:11.095Z,99433.75
2019-03-13T02:06:39.917Z,99439.78
2019-03-13T02:09:08.396Z,99445.28
2019-03-13T02:11:36.905Z,99444.16
2019-03-13T02:14:05.656Z,99457.89
2019-03-13T02:16:34.154Z,99452.98
2019-03-13T02:19:02.689Z,99458.72
2019-03-13T02:21:31.188Z,99439.78
2019-03-13T02:23:59.676Z,99447.48
2019-03-13T02:26:28.482Z,99451.32
2019-03-13T02:28:57.105Z,99443.91
2019-03-13T02:31:25.629Z,99445.53
2019-03-13T02:33:54.139Z,99452.14
2019-03-13T02:36:22.911Z,99452.14
2019-03-13T02:38:51.704Z,99454.89
2019-03-13T02:41:20.466Z,99453.52
2019-03-13T02:43:49.135Z,99450.77
2019-03-13T02:46:17.938Z,99449.40
2019-03-13T02:48:46.484Z,99452.14
2019-03-13T02:51:14.982Z,99442.53
2019-03-13T02:53:43.673Z,99438.95
2019-03-13T02:56:12.232Z,99438.13
2019-03-13T02:58:40.761Z,99436.76
2019-03-13T03:01:16.521Z,99432.64
2019-03-13T03:03:49.056Z,99441.16
2019-03-13T03:06:17.563Z,99438.13
2019-03-13T03:08:46.356Z,99432.64
2019-03-13T03:11:14.858Z,99432.64
2019-03-13T03:13:43.385Z,99439.78
2019-03-13T03:16:11.884Z,99435.66
2019-03-13T03:18:40.410Z,99432.64
2019-03-13T03:21:08.931Z,99435.38
2019-03-13T03:23:37.443Z,99421.10
2019-03-13T03:26:06.285Z,99427.14
2019-03-13T03:28:34.807Z,99422.48
2019-03-13T03:31:03.302Z,99421.10
2019-03-13T03:33:31.846Z,99421.66
2019-03-13T03:36:00.316Z,99424.94
2019-03-13T03:38:28.834Z,99418.91
2019-03-13T03:40:57.352Z,99414.78
2019-03-13T03:43:39.505Z,99412.03
2019-03-13T03:45:56.153Z,99415.33
2019-03-13T03:48:24.682Z,99417.53
2019-03-13T03:50:53.206Z,99428.52
2019-03-13T03:53:22.345Z,99429.64
2019-03-13T03:55:50.846Z,99430.44
2019-03-13T03:58:19.358Z,99423.57
2019-03-13T04:00:48.119Z,99422.77
2019-03-13T04:03:16.951Z,99427.14
2019-03-13T04:05:45.718Z,99423.02
2019-03-13T04:08:14.268Z,99427.42
2019-03-13T04:10:42.804Z,99413.95
2019-03-13T04:13:11.311Z,99418.36
2019-03-13T04:15:40.002Z,99420.03
2019-03-13T04:18:08.569Z,99421.41
2019-03-13T04:20:37.061Z,99414.78
2019-03-13T04:23:05.576Z,99411.78
2019-03-13T04:25:38.155Z,99414.53
2019-03-13T04:28:07.148Z,99425.52
2019-03-13T04:30:35.677Z,99418.91
2019-03-13T04:33:04.193Z,99415.91
2019-03-13T04:35:32.961Z,99411.78
2019-03-13T04:38:01.539Z,99415.33
2019-03-13T04:40:30.155Z,99412.58
2019-03-13T04:42:58.674Z,99415.91
2019-03-13T04:45:27.563Z,99408.46
2019-03-13T04:47:56.370Z,99413.95
2019-03-13T04:50:24.864Z,99407.92
2019-03-13T04:52:53.392Z,99405.17
2019-03-13T04:55:22.186Z,99409.84
2019-03-13T04:57:51.001Z,99404.63
2019-03-13T05:00:19.521Z,99395.30
2019-03-13T05:02:48.026Z,99388.69
2019-03-13T05:05:41.573Z,99388.69
2019-03-13T05:08:11.107Z,99396.93
2019-03-13T05:10:39.826Z,99402.42
2019-03-13T05:13:08.389Z,99382.37
2019-03-13T05:15:37.030Z,99388.69
2019-03-13T05:18:05.505Z,99390.06
2019-03-13T05:20:34.104Z,99400.22
2019-03-13T05:23:02.943Z,99389.52
2019-03-13T05:25:31.731Z,99388.69
2019-03-13T05:28:00.486Z,99389.81
2019-03-13T05:30:29.003Z,99377.50
2019-03-13T05:32:57.507Z,99387.78
2019-03-13T05:35:26.077Z,99386.41
2019-03-13T05:37:54.604Z,99398.13
2019-03-13T05:40:23.139Z,99393.10
2019-03-13T05:42:51.734Z,99378.56
2019-03-13T05:45:20.275Z,99376.75
2019-03-13T05:47:48.787Z,99369.42
2019-03-13T05:50:17.354Z,99363.91
2019-03-13T05:52:45.868Z,99369.11
2019-03-13T05:55:14.381Z,99360.84
2019-03-13T05:57:42.894Z,99355.28
2019-03-13T06:00:12.020Z,99362.64
2019-03-13T06:02:40.552Z,99360.39
2019-03-13T06:05:09.093Z,99370.50
2019-03-13T06:07:37.615Z,99367.72
2019-03-13T06:10:06.158Z,99369.89
2019-03-13T06:12:34.679Z,99367.67
2019-03-13T06:15:03.795Z,99366.84
2019-03-13T06:17:32.408Z,99361.05
2019-03-13T06:20:01.008Z,99362.41
2019-03-13T06:22:29.540Z,99351.70
2019-03-13T06:24:58.637Z,99359.63
2019-03-13T06:27:27.146Z,99362.36
2019-03-13T06:29:55.730Z,99360.44
2019-03-13T06:32:24.232Z,99355.20
2019-03-13T06:34:52.758Z,99350.83
2019-03-13T06:37:21.264Z,99350.55
2019-03-13T06:39:49.788Z,99347.52
2019-03-13T06:42:18.345Z,99343.98
2019-03-13T06:44:47.197Z,99346.98
2019-03-13T06:47:15.731Z,99338.22
2019-03-13T06:49:44.257Z,99344.84
2019-03-13T06:52:12.772Z,99341.53
2019-03-13T06:54:41.277Z,99352.27
2019-03-13T06:57:10.429Z,99347.86
2019-03-13T06:59:56.947Z,99344.59
2019-03-13T07:02:32.096Z,99344.34
2019-03-13T07:05:14.436Z,99342.68
2019-03-13T07:07:58.060Z,99342.41
2019-03-13T07:10:44.475Z,99347.61
2019-03-13T07:13:20.849Z,99347.88
2019-03-13T07:15:59.022Z,99360.80
2019-03-13T07:18:41.883Z,99355.31
2019-03-13T07:21:32.233Z,99360.80
2019-03-13T07:24:10.772Z,99356.69
2019-03-13T07:26:51.422Z,99353.36
2019-03-13T07:29:42.160Z,99359.14
2019-03-13T07:32:29.709Z,99341.84
2019-03-13T07:35:23.362Z,99354.48
2019-03-13T07:38:15.750Z,99348.98
2019-03-13T07:41:02.395Z,99348.98
2019-03-13T07:43:53.879Z,99339.11
2019-03-13T07:46:45.956Z,99345.97
2019-03-13T07:49:26.200Z,99336.64
2019-03-13T07:52:12.797Z,99349.83
2019-03-13T07:54:48.757Z,99342.96
2019-03-13T07:57:25.855Z,99345.70
2019-03-13T08:00:25.509Z,99347.08
2019-03-13T08:03:02.343Z,99341.59
2019-03-13T08:05:55.809Z,99338.84
2019-03-13T08:08:37.888Z,99333.35
2019-03-13T08:11:28.383Z,99344.34
2019-03-13T08:14:15.335Z,99334.44
2019-03-13T08:16:50.847Z,99333.07
2019-03-13T08:19:27.224Z,99324.55
2019-03-13T08:22:19.488Z,99334.16
2019-03-13T08:24:55.520Z,99326.47
2019-03-13T08:27:41.719Z,99313.28
2019-03-13T08:30:20.680Z,99325.36
2019-03-13T08:32:55.799Z,99305.89
2019-03-13T08:35:33.018Z,99308.64
2019-03-13T08:38:12.717Z,99313.55
2019-03-13T08:40:57.654Z,99311.63
2019-03-13T08:43:34.459Z,99314.37
2019-03-13T08:46:13.268Z,99306.14
2019-03-13T08:49:03.599Z,99302.30
2019-03-13T08:51:46.257Z,99299.28
2019-03-13T08:54:27.160Z,99304.22
2019-03-13T08:57:01.872Z,99308.06
2019-03-13T08:59:49.416Z,99305.59
2019-03-13T09:02:25.864Z,99307.52
2019-03-13T09:05:14.213Z,99302.59
2019-03-13T09:07:56.949Z,99299.28
2019-03-13T09:10:38.221Z,99306.14
2019-03-13T09:13:24.742Z,99300.10
2019-03-13T09:16:06.408Z,99289.67
2019-03-13T09:18:59.849Z,99298.19
2019-03-13T09:21:56.618Z,99300.94
2019-03-13T09:24:32.372Z,99292.95
2019-03-13T09:27:19.230Z,99289.67
2019-03-13T09:29:56.468Z,99284.17
2019-03-13T09:32:36.093Z,99277.31
2019-03-13T09:35:24.155Z,99281.98
2019-03-13T09:38:17.860Z,99267.45
2019-03-13T09:41:14.502Z,99270.18
2019-03-13T09:44:08.036Z,99261.12
2019-03-13T09:46:53.290Z,99261.66
2019-03-13T09:49:32.129Z,99258.38
2019-03-13T09:52:18.733Z,99247.39
2019-03-13T09:55:04.536Z,99244.09
2019-03-13T09:57:56.344Z,99246.02
2019-03-13T10:00:46.657Z,99258.38
2019-03-13T10:03:32.222Z,99247.11
2019-03-13T10:06:18.090Z,99251.23
2019-03-13T10:08:58.188Z,99249.86
2019-03-13T10:11:37.781Z,99235.88
2019-03-13T10:14:14.690Z,99232.03
2019-03-13T10:17:10.495Z,99249.33
2019-03-13T10:19:43.120Z,99241.64
2019-03-13T10:22:16.995Z,99256.73
2019-03-13T10:25:07.557Z,99248.25
2019-03-13T10:27:48.433Z,99245.75
2019-03-13T10:30:34.010Z,99240.81
2019-03-13T10:33:10.201Z,99245.50
2019-03-13T10:35:48.532Z,99238.89
2019-03-13T10:38:35.153Z,99237.27
2019-03-13T10:41:09.457Z,99235.31
2019-03-13T10:44:03.036Z,99237.27
2019-03-13T10:46:38.556Z,99232.03
2019-03-13T10:49:20.124Z,99243.56
2019-03-13T10:52:17.444Z,99233.70
2019-03-13T10:54:56.321Z,99237.52
2019-03-13T10:57:31.770Z,99241.09
2019-03-13T11:00:14.477Z,99252.36
2019-03-13T11:02:59.042Z,99235.30
2019-03-13T11:05:46.580Z,99240.25
2019-03-13T11:08:38.378Z,99228.72
2019-03-13T11:11:32.168Z,99227.08
2019-03-13T11:14:22.837Z,99228.45
2019-03-13T11:17:08.959Z,99235.03
2019-03-13T11:19:54.839Z,99242.18
2019-03-13T11:22:37.249Z,99240.25
2019-03-13T11:25:28.734Z,99243.27
2019-03-13T11:28:16.278Z,99237.50
2019-03-13T11:30:58.607Z,99234.75
2019-03-13T11:33:43.673Z,99227.06
2019-03-13T11:36:26.198Z,99241.38
2019-03-13T11:39:07.879Z,99226.52
2019-03-13T11:41:54.227Z,99221.85
2019-03-13T11:44:31.048Z,99226.80
2019-03-13T11:47:21.446Z,99215.81
2019-03-13T11:50:02.204Z,99214.44
2019-03-13T11:52:40.112Z,99218.56
2019-03-13T11:55:26.623Z,99206.48
2019-03-13T11:58:14.249Z,99208.95
2019-03-13T12:01:04.596Z,99196.31
2019-03-13T12:03:47.365Z,99205.67
2019-03-13T12:06:25.057Z,99191.67
2019-03-13T12:09:07.602Z,99195.52
2019-03-13T12:11:46.993Z,99178.79
2019-03-13T12:14:40.881Z,99177.96
2019-03-13T12:17:40.491Z,99188.40
2019-03-13T12:20:27.931Z,99172.47
2019-03-13T12:23:14.529Z,99162.03
2019-03-13T12:26:03.232Z,99168.66
2019-03-13T12:28:37.072Z,99170.27
2019-03-13T12:31:18.166Z,99169.42
2019-03-13T12:34:06.201Z,99148.05
2019-03-13T12:37:06.059Z,99153.52
2019-03-13T12:39:56.539Z,99155.13
2019-03-13T12:42:42.868Z,99152.94
2019-03-13T12:45:40.057Z,99148.28
2019-03-13T12:48:34.181Z,99139.49
2019-03-13T12:51:24.905Z,99134.53
2019-03-13T12:54:11.289Z,99119.95
2019-03-13T12:56:58.833Z,99134.20
2019-03-13T12:59:36.359Z,99133.41
2019-03-13T13:02:26.751Z,99137.80
2019-03-13T13:05:21.832Z,99129.56
2019-03-13T13:08:12.456Z,99127.12
2019-03-13T13:10:52.216Z,99137.27
2019-03-13T13:13:50.276Z,99137.02
2019-03-13T13:16:30.253Z,99138.13
2019-03-13T13:18:58.766Z,99132.63
2019-03-13T13:21:27.273Z,99125.22
2019-03-13T13:23:55.779Z,99119.18
2019-03-13T13:26:24.303Z,99116.70
2019-03-13T13:28:52.802Z,99114.78
2019-03-13T13:31:21.317Z,99111.76
2019-03-13T13:33:50.152Z,99109.29
2019-03-13T13:36:18.661Z,99092.52
2019-03-13T13:38:47.234Z,99105.39
2019-03-13T13:41:15.747Z,99101.86
2019-03-13T13:43:44.340Z,99090.88
2019-03-13T13:46:19.525Z,99077.69
2019-03-13T13:48:48.037Z,99087.02
2019-03-13T13:51:16.536Z,99080.73
2019-03-13T13:53:45.385Z,99095.84
2019-03-13T13:56:14.157Z,99081.84
2019-03-13T13:58:42.971Z,99083.75
2019-03-13T14:01:11.497Z,99079.09
2019-03-13T14:03:40.032Z,99089.80
2019-03-13T14:06:08.784Z,99090.89
2019-03-13T14:08:37.339Z,99082.66
2019-03-13T14:11:05.981Z,99077.44
2019-03-13T14:13:34.497Z,99083.75
2019-03-13T14:16:03.012Z,99087.05
2019-03-13T14:18:31.541Z,99076.06
2019-03-13T14:21:00.824Z,99079.09
2019-03-13T14:23:29.529Z,99074.69
2019-03-13T14:25:58.045Z,99060.97
2019-03-13T14:28:26.564Z,99079.64
2019-03-13T14:30:55.119Z,99066.18
2019-03-13T14:33:23.639Z,99077.16
2019-03-13T14:35:52.203Z,99076.34
2019-03-13T14:38:20.724Z,99064.80
2019-03-13T14:40:49.269Z,99076.88
2019-03-13T14:43:17.772Z,99078.25
2019-03-13T14:45:46.297Z,99078.25
2019-03-13T14:48:14.823Z,99078.01
2019-03-13T14:50:43.311Z,99087.87
2019-03-13T14:53:12.072Z,99075.27
2019-03-13T14:55:40.589Z,99077.19
2019-03-13T14:58:09.099Z,99065.66
2019-03-13T15:00:37.598Z,99076.91
2019-03-13T15:03:06.260Z,99072.24
2019-03-13T15:05:34.748Z,99078.01
2019-03-13T15:08:03.274Z,99085.67
2019-03-13T15:10:31.769Z,99079.93
2019-03-13T15:13:00.309Z,99089.54
2019-03-13T15:15:28.807Z,99082.95
2019-03-13T15:17:57.317Z,99093.93
2019-03-13T15:20:25.833Z,99087.64
2019-03-13T15:22:54.710Z,99089.56
2019-03-13T15:25:23.225Z,99086.27
2019-03-13T15:27:51.765Z,99110.41
2019-03-13T15:30:21.229Z,99103.81
2019-03-13T15:32:50.342Z,99116.17
2019-03-13T15:35:18.861Z,99100.79
2019-03-13T15:37:47.369Z,99106.56
2019-03-13T15:40:15.957Z,99098.05
2019-03-13T15:42:44.793Z,99093.93
2019-03-13T15:45:15.485Z,99077.73
2019-03-13T15:47:43.988Z,99078.28
2019-03-13T15:50:13.492Z,99066.75
2019-03-13T15:52:42.014Z,99070.32
2019-03-13T15:55:11.433Z,99068.92
2019-03-13T15:57:39.952Z,99062.61
2019-03-13T16:00:12.430Z,99070.02
2019-03-13T16:02:40.977Z,99068.65
2019-03-13T16:05:09.474Z,99067.27
2019-03-13T16:07:38.339Z,99061.78
2019-03-13T16:10:07.985Z,99064.28
2019-03-13T16:12:36.508Z,99067.30
2019-03-13T16:15:05.853Z,99055.77
2019-03-13T16:17:34.409Z,99055.49
2019-03-13T16:20:02.962Z,99056.86
2019-03-13T16:22:31.474Z,99049.20
2019-03-13T16:25:00.009Z,99059.91
2019-03-13T16:27:28.516Z,99073.09
2019-03-13T16:29:57.033Z,99052.50
2019-03-13T16:32:25.582Z,99055.80
2019-03-13T16:34:54.112Z,99058.54
2019-03-13T16:37:22.650Z,99064.58
2019-03-13T16:39:51.174Z,99067.08
2019-03-13T16:42:19.723Z,99067.33
2019-03-13T16:44:48.292Z,99066.25
2019-03-13T16:47:17.155Z,99077.78
2019-03-13T16:49:45.678Z,99060.77
2019-03-13T16:52:14.272Z,99063.51
2019-03-13T16:54:42.773Z,99058.02
2019-03-13T16:57:11.322Z,99058.84
2019-03-13T16:59:39.810Z,99062.69
2019-03-13T17:02:08.322Z,99065.42
2019-03-13T17:04:36.832Z,99064.88
2019-03-13T17:07:05.349Z,99061.06
2019-03-13T17:09:33.887Z,99062.44
2019-03-13T17:12:02.492Z,99058.87
2019-03-13T17:14:31.009Z,99056.95
2019-03-13T17:16:59.498Z,99050.63
2019-03-13T17:19:28.023Z,99056.95
2019-03-13T17:21:56.565Z,99067.34
2019-03-13T17:24:25.093Z,99074.22
2019-03-13T17:26:53.623Z,99072.66
2019-03-13T17:29:22.131Z,99078.36
2019-03-13T17:31:51.288Z,99052.48
2019-03-13T17:34:19.893Z,99065.48
2019-03-13T17:36:48.384Z,99067.81
2019-03-13T17:39:16.944Z,99062.78
2019-03-13T17:41:45.808Z,99064.33
2019-03-13T17:44:14.323Z,99060.41
2019-03-13T17:46:42.848Z,99059.55
2019-03-13T17:49:11.354Z,99050.98
2019-03-13T17:51:39.865Z,99042.44
2019-03-13T17:54:08.440Z,99031.96
2019-03-13T17:56:36.942Z,99041.00
2019-03-13T17:59:05.682Z,99032.19
2019-03-13T18:01:34.180Z,99025.85
2019-03-13T18:04:03.076Z,99030.73
2019-03-13T18:06:31.610Z,99029.34
2019-03-13T18:09:00.337Z,99027.09
2019-03-13T18:11:28.840Z,99026.83
2019-03-13T18:13:57.381Z,99026.83
2019-03-13T18:16:26.288Z,99030.39
2019-03-13T18:18:54.810Z,99029.02
2019-03-13T18:21:23.352Z,99025.13
2019-03-13T18:23:51.943Z,99026.78
2019-03-13T18:26:20.824Z,99028.94
2019-03-13T18:28:49.329Z,99025.90
2019-03-13T18:31:17.874Z,99017.03
2019-03-13T18:33:46.412Z,99032.41
2019-03-13T18:36:15.306Z,99027.72
2019-03-13T18:38:43.846Z,99028.23
2019-03-13T18:41:12.355Z,99032.58
2019-03-13T18:43:41.743Z,99042.46
2019-03-13T18:46:10.551Z,99035.02
2019-03-13T18:48:39.071Z,99032.25
2019-03-13T18:51:07.577Z,99029.74
2019-03-13T18:53:36.190Z,99026.17
2019-03-13T18:56:04.699Z,99029.22
2019-03-13T18:58:34.877Z,99015.52
2019-03-13T19:01:03.628Z,99023.48
2019-03-13T19:03:32.177Z,99034.83
2019-03-13T19:06:00.686Z,99025.19
2019-03-13T19:08:29.185Z,99019.95
2019-03-13T19:42:05.856Z,99081.88
2019-03-13T19:44:34.661Z,99076.66
2019-03-13T19:47:03.187Z,99076.08
2019-03-13T19:49:31.932Z,99075.30
2019-03-13T19:52:00.776Z,99083.25
2019-03-13T19:54:29.327Z,99080.80
2019-03-13T19:56:58.171Z,99085.47
2019-03-13T19:59:26.692Z,99089.31
2019-03-13T20:01:55.229Z,99078.91
2019-03-13T20:04:23.859Z,99071.77
2019-03-13T20:06:52.392Z,99081.38
2019-03-13T20:09:21.274Z,99084.95
2019-03-13T20:11:49.809Z,99089.06
2019-03-13T20:14:18.410Z,99084.13
2019-03-13T20:16:46.891Z,99084.13
2019-03-13T20:19:15.508Z,99100.89
2019-03-13T20:21:44.265Z,99103.06
2019-03-13T20:24:12.825Z,99105.26
2019-03-13T20:26:41.374Z,99111.30
2019-03-13T20:29:09.887Z,99117.36
2019-03-13T20:31:38.430Z,99119.28
2019-03-13T20:34:07.038Z,99138.22
2019-03-13T20:36:35.923Z,99132.73
2019-03-13T20:39:05.825Z,99129.73
2019-03-13T20:41:34.638Z,99128.37
2019-03-13T20:44:03.169Z,99134.41
2019-03-13T20:46:31.722Z,99140.17
2019-03-13T20:49:00.252Z,99145.38
2019-03-13T20:51:28.789Z,99150.33
2019-03-13T20:53:57.351Z,99154.16
2019-03-13T20:56:25.855Z,99152.79
2019-03-13T20:58:54.754Z,99160.48
2019-03-13T21:01:23.252Z,99173.66
2019-03-13T21:03:51.803Z,99165.42
2019-03-13T21:06:20.321Z,99176.66
2019-03-13T21:08:49.414Z,99189.28
2019-03-13T21:11:18.204Z,99189.83
2019-03-13T21:13:47.203Z,99205.75
2019-03-13T21:16:15.740Z,99205.75
2019-03-13T21:18:44.244Z,99204.10
2019-03-13T21:21:12.789Z,99215.08
2019-03-13T21:23:41.302Z,99211.55
2019-03-13T21:26:09.803Z,99212.09
2019-03-13T21:28:38.347Z,99228.55
2019-03-13T21:31:06.930Z,99221.70
2019-03-13T21:33:35.545Z,99241.45
2019-03-13T21:36:04.113Z,99240.91
2019-03-13T21:38:32.962Z,99259.00
2019-03-13T21:41:01.792Z,99254.64
2019-03-13T21:43:30.621Z,99247.49
2019-03-13T21:45:59.156Z,99259.30
2019-03-13T21:48:27.685Z,99259.30
2019-03-13T21:50:56.219Z,99268.08
2019-03-13T21:53:25.078Z,99282.63
2019-03-13T21:55:54.378Z,99275.22
2019-03-13T21:58:22.876Z,99296.91
2019-03-13T22:00:51.398Z,99304.31
2019-03-13T22:03:29.577Z,99312.00
2019-03-13T22:05:50.179Z,99317.79
2019-03-13T22:08:18.762Z,99321.08
2019-03-13T22:10:47.280Z,99324.11
2019-03-13T22:13:15.825Z,99343.32
2019-03-13T22:15:44.676Z,99349.90
2019-03-13T22:18:13.233Z,99346.61
2019-03-13T22:20:41.726Z,99349.90
2019-03-13T22:23:10.524Z,99362.25
2019-03-13T22:25:39.048Z,99367.20
2019-03-13T22:28:07.560Z,99391.63
2019-03-13T22:30:36.346Z,99387.50
2019-03-13T22:33:04.855Z,99386.67
2019-03-13T22:35:33.359Z,99396.28
2019-03-13T22:38:01.895Z,99411.67
2019-03-13T22:40:30.402Z,99421.83
2019-03-13T22:42:59.277Z,99412.80
2019-03-13T22:45:27.809Z,99426.77
2019-03-13T22:47:56.657Z,99427.31
2019-03-13T22:50:25.218Z,99441.33
2019-03-13T22:52:54.009Z,99445.44
2019-03-13T22:55:22.543Z,99454.77
2019-03-13T22:57:51.045Z,99458.88
2019-03-13T23:00:49.589Z,99468.48
2019-03-13T23:03:18.157Z,99458.09
2019-03-13T23:05:46.646Z,99458.88
2019-03-13T23:08:15.174Z,99466.32
2019-03-13T23:10:43.776Z,99477.55
2019-03-13T23:13:12.282Z,99474.56
2019-03-13T23:15:40.808Z,99481.96
2019-03-13T23:18:09.360Z,99480.05
2019-03-13T23:20:37.845Z,99484.16
2019-03-13T23:23:06.367Z,99488.28
2019-03-13T23:25:34.896Z,99486.08
2019-03-13T23:28:03.691Z,99488.28
2019-03-13T23:30:32.184Z,99494.31
2019-03-13T23:33:00.716Z,99495.69
2019-03-13T23:35:29.215Z,99507.21
2019-03-13T23:37:57.718Z,99512.70
2019-03-13T23:40:26.217Z,99517.36
2019-03-13T23:42:54.732Z,99517.64
2019-03-13T23:45:23.553Z,99522.30
2019-03-13T23:47:52.088Z,99520.94
2019-03-13T23:50:20.941Z,99535.48
2019-03-13T23:52:49.475Z,99533.29
2019-03-13T23:55:18.325Z,99543.73
2019-03-13T23:57:46.844Z,99546.47
